sensor_id;sensor_type;location;lat;lon;timestamp;temperature;humidity
22984;DHT22;11658;48.908;9.140;2023-03-14T04:03:01;9.50;99.90
22984;DHT22;11658;48.908;9.140;2023-03-14T04:05:27;9.50;99.90
22984;DHT22;11658;48.908;9.140;2023-03-14T04:07:53;9.50;99.90
22984;DHT22;11658;48.908;9.140;2023-03-14T04:10:18;9.50;99.90
22984;DHT22;11658;48.908;9.140;2023-03-14T04:12:44;9.50;99.90
22984;DHT22;11658;48.908;9.140;2023-03-14T04:15:10;9.40;99.90
22984;DHT22;11658;48.908;9.140;2023-03-14T04:17:35;9.40;99.90
22984;DHT22;11658;48.908;9.140;2023-03-14T04:20:01;9.40;99.90
22984;DHT22;11658;48.908;9.140;2023-03-14T04:22:26;9.40;99.90
22984;DHT22;11658;48.908;9.140;2023-03-14T04:24:52;9.40;99.90
22984;DHT22;11658;48.908;9.140;2023-03-14T04:27:17;9.40;99.90
22984;DHT22;11658;48.908;9.140;2023-03-14T04:29:43;9.40;99.90
22984;DHT22;11658;48.908;9.140;2023-03-14T04:32:08;9.30;99.90
22984;DHT22;11658;48.908;9.140;2023-03-14T04:34:34;9.30;99.90
22984;DHT22;11658;48.908;9.140;2023-03-14T04:37:00;9.30;99.90
22984;DHT22;11658;48.908;9.140;2023-03-14T04:39:25;9.20;99.90
22984;DHT22;11658;48.908;9.140;2023-03-14T04:41:51;9.20;99.90
22984;DHT22;11658;48.908;9.140;2023-03-14T04:44:17;9.20;99.90
22984;DHT22;11658;48.908;9.140;2023-03-14T04:46:43;9.20;99.90
22984;DHT22;11658;48.908;9.140;2023-03-14T04:49:08;9.20;99.90
22984;DHT22;11658;48.908;9.140;2023-03-14T04:51:34;9.30;99.90
22984;DHT22;11658;48.908;9.140;2023-03-14T04:54:00;9.30;99.90
22984;DHT22;11658;48.908;9.140;2023-03-14T04:56:25;9.20;99.90
22984;DHT22;11658;48.908;9.140;2023-03-14T04:58:51;9.20;99.90
22984;DHT22;11658;48.908;9.140;2023-03-14T05:01:17;9.20;99.90
22984;DHT22;11658;48.908;9.140;2023-03-14T05:03:43;9.10;99.90
22984;DHT22;11658;48.908;9.140;2023-03-14T05:06:08;9.10;99.90
22984;DHT22;11658;48.908;9.140;2023-03-14T05:08:34;9.10;99.90
22984;DHT22;11658;48.908;9.140;2023-03-14T05:11:00;9.10;99.90
22984;DHT22;11658;48.908;9.140;2023-03-14T05:13:25;9.10;99.90
22984;DHT22;11658;48.908;9.140;2023-03-14T05:15:51;9.00;99.90
22984;DHT22;11658;48.908;9.140;2023-03-14T05:18:17;9.00;99.90
22984;DHT22;11658;48.908;9.140;2023-03-14T05:20:43;9.00;99.90
22984;DHT22;11658;48.908;9.140;2023-03-14T05:23:09;9.00;99.90
22984;DHT22;11658;48.908;9.140;2023-03-14T05:25:35;9.00;99.90
22984;DHT22;11658;48.908;9.140;2023-03-14T05:28:00;9.00;99.90
22984;DHT22;11658;48.908;9.140;2023-03-14T05:30:26;9.00;99.90
22984;DHT22;11658;48.908;9.140;2023-03-14T05:32:53;9.10;99.90
22984;DHT22;11658;48.908;9.140;2023-03-14T05:35:19;9.00;99.90
22984;DHT22;11658;48.908;9.140;2023-03-14T05:37:45;9.10;99.90
22984;DHT22;11658;48.908;9.140;2023-03-14T05:40:11;9.10;99.90
22984;DHT22;11658;48.908;9.140;2023-03-14T05:42:36;9.00;99.90
22984;DHT22;11658;48.908;9.140;2023-03-14T05:45:02;9.00;99.90
22984;DHT22;11658;48.908;9.140;2023-03-14T05:47:28;9.10;99.90
22984;DHT22;11658;48.908;9.140;2023-03-14T05:49:53;9.10;99.90
22984;DHT22;11658;48.908;9.140;2023-03-14T05:52:19;9.20;99.90
22984;DHT22;11658;48.908;9.140;2023-03-14T05:54:44;9.20;99.90
22984;DHT22;11658;48.908;9.140;2023-03-14T05:57:10;9.30;99.90
22984;DHT22;11658;48.908;9.140;2023-03-14T05:59:35;9.30;99.90
22984;DHT22;11658;48.908;9.140;2023-03-14T06:02:01;9.30;99.90
22984;DHT22;11658;48.908;9.140;2023-03-14T06:04:27;9.30;99.90
22984;DHT22;11658;48.908;9.140;2023-03-14T06:06:52;9.20;99.90
22984;DHT22;11658;48.908;9.140;2023-03-14T06:09:18;9.30;99.90
22984;DHT22;11658;48.908;9.140;2023-03-14T06:11:45;9.30;99.90
22984;DHT22;11658;48.908;9.140;2023-03-14T06:14:11;9.30;99.90
22984;DHT22;11658;48.908;9.140;2023-03-14T06:16:37;9.30;99.90
22984;DHT22;11658;48.908;9.140;2023-03-14T06:19:04;9.30;99.90
22984;DHT22;11658;48.908;9.140;2023-03-14T06:21:29;9.30;99.90
22984;DHT22;11658;48.908;9.140;2023-03-14T06:23:55;9.30;99.90
22984;DHT22;11658;48.908;9.140;2023-03-14T06:26:21;9.30;99.90
22984;DHT22;11658;48.908;9.140;2023-03-14T06:28:48;9.30;99.90
22984;DHT22;11658;48.908;9.140;2023-03-14T06:31:14;9.30;99.90
22984;DHT22;11658;48.908;9.140;2023-03-14T06:33:39;9.30;99.90
22984;DHT22;11658;48.908;9.140;2023-03-14T06:36:05;9.30;99.90
22984;DHT22;11658;48.908;9.140;2023-03-14T06:38:31;9.30;99.90
22984;DHT22;11658;48.908;9.140;2023-03-14T06:41:00;9.40;99.90
22984;DHT22;11658;48.908;9.140;2023-03-14T06:43:27;9.40;99.90
22984;DHT22;11658;48.908;9.140;2023-03-14T06:45:53;9.50;99.90
22984;DHT22;11658;48.908;9.140;2023-03-14T06:48:18;9.60;99.90
22984;DHT22;11658;48.908;9.140;2023-03-14T06:50:44;9.70;99.90
22984;DHT22;11658;48.908;9.140;2023-03-14T06:53:10;9.80;99.90
22984;DHT22;11658;48.908;9.140;2023-03-14T06:55:35;9.90;99.90
22984;DHT22;11658;48.908;9.140;2023-03-14T06:58:01;9.90;99.90
22984;DHT22;11658;48.908;9.140;2023-03-14T07:00:27;9.90;99.90
22984;DHT22;11658;48.908;9.140;2023-03-14T07:02:52;9.90;99.90
22984;DHT22;11658;48.908;9.140;2023-03-14T07:05:18;9.90;99.90
22984;DHT22;11658;48.908;9.140;2023-03-14T07:07:43;10.00;99.90
22984;DHT22;11658;48.908;9.140;2023-03-14T07:10:09;10.10;99.90
22984;DHT22;11658;48.908;9.140;2023-03-14T07:12:35;10.30;99.90
22984;DHT22;11658;48.908;9.140;2023-03-14T07:15:01;10.50;99.90
22984;DHT22;11658;48.908;9.140;2023-03-14T07:17:26;10.70;99.90
22984;DHT22;11658;48.908;9.140;2023-03-14T07:19:52;11.00;99.90
22984;DHT22;11658;48.908;9.140;2023-03-14T07:22:18;11.10;99.90
22984;DHT22;11658;48.908;9.140;2023-03-14T07:24:43;11.20;99.90
22984;DHT22;11658;48.908;9.140;2023-03-14T07:27:09;11.30;99.90
22984;DHT22;11658;48.908;9.140;2023-03-14T07:29:34;11.50;99.90
22984;DHT22;11658;48.908;9.140;2023-03-14T07:32:00;11.60;99.90
22984;DHT22;11658;48.908;9.140;2023-03-14T07:34:25;11.60;99.90
22984;DHT22;11658;48.908;9.140;2023-03-14T07:36:51;11.50;99.90
22984;DHT22;11658;48.908;9.140;2023-03-14T07:39:16;11.50;99.90
22984;DHT22;11658;48.908;9.140;2023-03-14T07:41:42;11.40;99.90
22984;DHT22;11658;48.908;9.140;2023-03-14T07:44:08;11.40;99.90
22984;DHT22;11658;48.908;9.140;2023-03-14T07:46:33;11.50;99.90
22984;DHT22;11658;48.908;9.140;2023-03-14T07:48:59;11.50;99.90
22984;DHT22;11658;48.908;9.140;2023-03-14T07:51:25;11.40;99.90
22984;DHT22;11658;48.908;9.140;2023-03-14T07:53:50;11.50;99.90
22984;DHT22;11658;48.908;9.140;2023-03-14T07:56:16;11.50;99.90
22984;DHT22;11658;48.908;9.140;2023-03-14T07:58:41;11.50;99.90
22984;DHT22;11658;48.908;9.140;2023-03-14T08:01:07;11.50;99.90
22984;DHT22;11658;48.908;9.140;2023-03-14T08:03:32;11.60;99.90
22984;DHT22;11658;48.908;9.140;2023-03-14T08:05:58;11.70;99.90
22984;DHT22;11658;48.908;9.140;2023-03-14T08:08:24;12.00;99.90
22984;DHT22;11658;48.908;9.140;2023-03-14T08:10:49;12.20;99.90
22984;DHT22;11658;48.908;9.140;2023-03-14T08:13:15;12.30;99.90
22984;DHT22;11658;48.908;9.140;2023-03-14T08:15:40;12.30;99.90
22984;DHT22;11658;48.908;9.140;2023-03-14T08:18:06;12.30;99.90
22984;DHT22;11658;48.908;9.140;2023-03-14T08:20:32;12.40;99.90
22984;DHT22;11658;48.908;9.140;2023-03-14T08:22:59;12.40;99.90
22984;DHT22;11658;48.908;9.140;2023-03-14T08:25:27;12.30;99.90
22984;DHT22;11658;48.908;9.140;2023-03-14T08:27:52;12.20;99.90
22984;DHT22;11658;48.908;9.140;2023-03-14T08:30:20;12.10;99.90
22984;DHT22;11658;48.908;9.140;2023-03-14T08:32:46;12.10;99.90
22984;DHT22;11658;48.908;9.140;2023-03-14T08:35:12;12.20;99.90
22984;DHT22;11658;48.908;9.140;2023-03-14T08:37:38;12.30;99.90
22984;DHT22;11658;48.908;9.140;2023-03-14T08:40:05;12.50;99.90
22984;DHT22;11658;48.908;9.140;2023-03-14T08:42:36;12.80;99.90
22984;DHT22;11658;48.908;9.140;2023-03-14T08:45:02;13.00;99.90
22984;DHT22;11658;48.908;9.140;2023-03-14T08:47:28;13.20;99.90
22984;DHT22;11658;48.908;9.140;2023-03-14T08:49:53;13.30;99.90
22984;DHT22;11658;48.908;9.140;2023-03-14T08:52:19;13.40;99.90
22984;DHT22;11658;48.908;9.140;2023-03-14T08:54:45;13.40;99.90
22984;DHT22;11658;48.908;9.140;2023-03-14T08:57:11;13.20;99.90
22984;DHT22;11658;48.908;9.140;2023-03-14T08:59:37;13.10;99.90
22984;DHT22;11658;48.908;9.140;2023-03-14T09:02:02;12.90;99.90
22984;DHT22;11658;48.908;9.140;2023-03-14T09:04:32;12.90;99.90
22984;DHT22;11658;48.908;9.140;2023-03-14T09:06:58;12.70;99.90
22984;DHT22;11658;48.908;9.140;2023-03-14T09:09:24;12.90;99.90
22984;DHT22;11658;48.908;9.140;2023-03-14T09:11:52;13.00;99.90
22984;DHT22;11658;48.908;9.140;2023-03-14T09:14:17;13.00;99.90
22984;DHT22;11658;48.908;9.140;2023-03-14T09:16:43;12.80;99.90
22984;DHT22;11658;48.908;9.140;2023-03-14T09:19:08;12.70;99.90
22984;DHT22;11658;48.908;9.140;2023-03-14T09:21:34;12.80;99.90
22984;DHT22;11658;48.908;9.140;2023-03-14T09:24:00;12.50;99.90
22984;DHT22;11658;48.908;9.140;2023-03-14T09:26:25;12.40;99.90
22984;DHT22;11658;48.908;9.140;2023-03-14T09:28:51;12.30;99.90
22984;DHT22;11658;48.908;9.140;2023-03-14T09:31:16;12.30;99.90
22984;DHT22;11658;48.908;9.140;2023-03-14T09:33:42;12.00;99.90
22984;DHT22;11658;48.908;9.140;2023-03-14T09:36:08;11.80;99.90
22984;DHT22;11658;48.908;9.140;2023-03-14T09:38:34;11.70;99.90
22984;DHT22;11658;48.908;9.140;2023-03-14T09:41:01;11.80;99.90
22984;DHT22;11658;48.908;9.140;2023-03-14T09:43:34;11.90;99.90
22984;DHT22;11658;48.908;9.140;2023-03-14T09:46:02;11.90;99.90
22984;DHT22;11658;48.908;9.140;2023-03-14T09:48:30;11.90;99.90
22984;DHT22;11658;48.908;9.140;2023-03-14T09:50:58;11.90;99.90
22984;DHT22;11658;48.908;9.140;2023-03-14T09:53:27;11.90;99.90
22984;DHT22;11658;48.908;9.140;2023-03-14T09:55:54;12.10;99.90
22984;DHT22;11658;48.908;9.140;2023-03-14T09:58:23;12.10;99.90
22984;DHT22;11658;48.908;9.140;2023-03-14T10:00:50;12.30;99.90
22984;DHT22;11658;48.908;9.140;2023-03-14T10:03:31;12.30;99.90
22984;DHT22;11658;48.908;9.140;2023-03-14T10:05:57;12.30;99.90
22984;DHT22;11658;48.908;9.140;2023-03-14T10:08:23;12.40;99.90
22984;DHT22;11658;48.908;9.140;2023-03-14T10:10:49;12.50;99.90
22984;DHT22;11658;48.908;9.140;2023-03-14T10:13:16;12.40;99.90
22984;DHT22;11658;48.908;9.140;2023-03-14T10:16:07;12.50;99.90
22984;DHT22;11658;48.908;9.140;2023-03-14T10:18:32;12.60;99.90
22984;DHT22;11658;48.908;9.140;2023-03-14T10:21:04;12.50;99.90
22984;DHT22;11658;48.908;9.140;2023-03-14T10:23:32;12.50;99.90
22984;DHT22;11658;48.908;9.140;2023-03-14T10:26:06;12.60;99.90
22984;DHT22;11658;48.908;9.140;2023-03-14T10:28:37;12.70;99.90
22984;DHT22;11658;48.908;9.140;2023-03-14T10:31:03;13.20;99.90
22984;DHT22;11658;48.908;9.140;2023-03-14T10:33:34;13.40;99.90
22984;DHT22;11658;48.908;9.140;2023-03-14T10:38:40;13.10;99.90
22984;DHT22;11658;48.908;9.140;2023-03-14T10:44:00;12.90;99.90
22984;DHT22;11658;48.908;9.140;2023-03-14T10:46:30;12.80;99.90
22984;DHT22;11658;48.908;9.140;2023-03-14T10:48:56;12.80;99.90
22984;DHT22;11658;48.908;9.140;2023-03-14T10:51:26;12.90;99.90
22984;DHT22;11658;48.908;9.140;2023-03-14T10:53:56;12.90;99.90
22984;DHT22;11658;48.908;9.140;2023-03-14T10:56:25;12.90;99.90
22984;DHT22;11658;48.908;9.140;2023-03-14T10:58:52;13.10;99.90
22984;DHT22;11658;48.908;9.140;2023-03-14T11:06:38;12.40;99.90
22984;DHT22;11658;48.908;9.140;2023-03-14T11:09:07;12.20;99.90
22984;DHT22;11658;48.908;9.140;2023-03-14T11:11:36;12.00;99.90
22984;DHT22;11658;48.908;9.140;2023-03-14T11:14:10;11.80;99.90
22984;DHT22;11658;48.908;9.140;2023-03-14T11:27:17;11.60;99.90
22984;DHT22;11658;48.908;9.140;2023-03-14T11:37:42;11.50;99.90
22984;DHT22;11658;48.908;9.140;2023-03-14T11:40:18;11.30;99.90
22984;DHT22;11658;48.908;9.140;2023-03-14T11:42:50;11.30;99.90
22984;DHT22;11658;48.908;9.140;2023-03-14T11:45:35;11.10;99.90
22984;DHT22;11658;48.908;9.140;2023-03-14T11:48:21;11.30;99.90
22984;DHT22;11658;48.908;9.140;2023-03-14T11:50:49;11.40;99.90
22984;DHT22;11658;48.908;9.140;2023-03-14T11:53:22;11.50;99.90
22984;DHT22;11658;48.908;9.140;2023-03-14T11:55:48;11.50;99.90
22984;DHT22;11658;48.908;9.140;2023-03-14T11:58:31;11.20;99.90
22984;DHT22;11658;48.908;9.140;2023-03-14T12:01:05;11.00;99.90
22984;DHT22;11658;48.908;9.140;2023-03-14T12:04:22;10.90;99.90
22984;DHT22;11658;48.908;9.140;2023-03-14T12:06:50;10.90;99.90
22984;DHT22;11658;48.908;9.140;2023-03-14T12:09:18;10.90;99.90
22984;DHT22;11658;48.908;9.140;2023-03-14T12:11:54;11.00;99.90
22984;DHT22;11658;48.908;9.140;2023-03-14T12:14:35;10.90;99.90
22984;DHT22;11658;48.908;9.140;2023-03-14T12:17:06;11.00;99.90
22984;DHT22;11658;48.908;9.140;2023-03-14T12:19:33;10.90;99.90
22984;DHT22;11658;48.908;9.140;2023-03-14T12:24:51;10.60;99.90
22984;DHT22;11658;48.908;9.140;2023-03-14T12:30:59;10.00;99.90
22984;DHT22;11658;48.908;9.140;2023-03-14T12:43:40;9.00;99.90
22984;DHT22;11658;48.908;9.140;2023-03-14T12:48:41;8.70;99.90
22984;DHT22;11658;48.908;9.140;2023-03-14T12:51:13;8.60;99.90
22984;DHT22;11658;48.908;9.140;2023-03-14T12:54:07;8.70;99.90
22984;DHT22;11658;48.908;9.140;2023-03-14T12:59:35;9.10;99.90
22984;DHT22;11658;48.908;9.140;2023-03-14T13:07:12;10.00;99.90
22984;DHT22;11658;48.908;9.140;2023-03-14T13:18:11;9.80;99.90
22984;DHT22;11658;48.908;9.140;2023-03-14T13:20:54;9.70;99.90
22984;DHT22;11658;48.908;9.140;2023-03-14T13:23:41;9.70;99.90
22984;DHT22;11658;48.908;9.140;2023-03-14T13:26:18;9.80;99.90
22984;DHT22;11658;48.908;9.140;2023-03-14T13:28:44;9.80;99.90
22984;DHT22;11658;48.908;9.140;2023-03-14T13:31:24;9.90;99.90
22984;DHT22;11658;48.908;9.140;2023-03-14T13:34:01;9.80;99.90
22984;DHT22;11658;48.908;9.140;2023-03-14T13:36:27;9.80;99.90
22984;DHT22;11658;48.908;9.140;2023-03-14T13:38:59;9.90;99.90
22984;DHT22;11658;48.908;9.140;2023-03-14T13:41:25;9.90;99.90
22984;DHT22;11658;48.908;9.140;2023-03-14T13:43:51;9.70;99.90
22984;DHT22;11658;48.908;9.140;2023-03-14T13:46:21;9.80;99.90
22984;DHT22;11658;48.908;9.140;2023-03-14T13:48:57;9.70;99.90
22984;DHT22;11658;48.908;9.140;2023-03-14T13:51:24;9.60;99.90
22984;DHT22;11658;48.908;9.140;2023-03-14T13:53:54;9.70;99.90
22984;DHT22;11658;48.908;9.140;2023-03-14T13:56:21;9.70;99.90
22984;DHT22;11658;48.908;9.140;2023-03-14T13:58:48;9.70;99.90
22984;DHT22;11658;48.908;9.140;2023-03-14T14:03:46;10.00;99.90
22984;DHT22;11658;48.908;9.140;2023-03-14T14:06:31;9.90;99.90
22984;DHT22;11658;48.908;9.140;2023-03-14T14:08:59;9.80;99.90
22984;DHT22;11658;48.908;9.140;2023-03-14T14:11:38;9.50;99.90
22984;DHT22;11658;48.908;9.140;2023-03-14T14:14:14;9.40;99.90
22984;DHT22;11658;48.908;9.140;2023-03-14T14:16:43;9.30;99.90
22984;DHT22;11658;48.908;9.140;2023-03-14T14:19:10;9.30;99.90
22984;DHT22;11658;48.908;9.140;2023-03-14T14:21:36;9.20;99.90
22984;DHT22;11658;48.908;9.140;2023-03-14T14:24:03;9.20;99.90
22984;DHT22;11658;48.908;9.140;2023-03-14T14:26:28;9.10;99.90
22984;DHT22;11658;48.908;9.140;2023-03-14T14:29:05;9.10;99.90
22984;DHT22;11658;48.908;9.140;2023-03-14T14:31:31;9.20;99.90
22984;DHT22;11658;48.908;9.140;2023-03-14T14:34:04;9.20;99.90
22984;DHT22;11658;48.908;9.140;2023-03-14T14:36:38;9.30;99.90
22984;DHT22;11658;48.908;9.140;2023-03-14T14:39:23;9.10;99.90
22984;DHT22;11658;48.908;9.140;2023-03-14T14:41:51;9.10;99.90
22984;DHT22;11658;48.908;9.140;2023-03-14T14:44:26;9.10;99.90
22984;DHT22;11658;48.908;9.140;2023-03-14T14:46:55;9.10;99.90
22984;DHT22;11658;48.908;9.140;2023-03-14T14:49:22;9.20;99.90
22984;DHT22;11658;48.908;9.140;2023-03-14T14:52:08;9.10;99.90
22984;DHT22;11658;48.908;9.140;2023-03-14T14:54:40;9.10;99.90
22984;DHT22;11658;48.908;9.140;2023-03-14T14:57:18;9.10;99.90
22984;DHT22;11658;48.908;9.140;2023-03-14T14:59:44;9.10;99.90
22984;DHT22;11658;48.908;9.140;2023-03-14T15:02:28;9.20;99.90
22984;DHT22;11658;48.908;9.140;2023-03-14T15:04:54;9.50;99.90
22984;DHT22;11658;48.908;9.140;2023-03-14T15:07:20;9.60;99.90
22984;DHT22;11658;48.908;9.140;2023-03-14T15:09:45;9.90;99.90
22984;DHT22;11658;48.908;9.140;2023-03-14T15:12:11;9.90;99.90
22984;DHT22;11658;48.908;9.140;2023-03-14T15:14:37;9.90;99.90
22984;DHT22;11658;48.908;9.140;2023-03-14T15:17:02;10.00;99.90
22984;DHT22;11658;48.908;9.140;2023-03-14T15:19:28;10.00;99.90
22984;DHT22;11658;48.908;9.140;2023-03-14T15:21:58;9.80;99.90
22984;DHT22;11658;48.908;9.140;2023-03-14T15:24:24;9.60;99.90
22984;DHT22;11658;48.908;9.140;2023-03-14T15:26:50;9.50;99.90
22984;DHT22;11658;48.908;9.140;2023-03-14T15:29:16;9.40;99.90
22984;DHT22;11658;48.908;9.140;2023-03-14T15:31:41;9.30;99.90
22984;DHT22;11658;48.908;9.140;2023-03-14T15:34:09;9.20;99.90
22984;DHT22;11658;48.908;9.140;2023-03-14T15:36:34;9.10;99.90
22984;DHT22;11658;48.908;9.140;2023-03-14T15:39:01;9.10;99.90
22984;DHT22;11658;48.908;9.140;2023-03-14T15:41:27;9.00;99.90
22984;DHT22;11658;48.908;9.140;2023-03-14T15:43:53;9.00;99.90
22984;DHT22;11658;48.908;9.140;2023-03-14T15:46:19;9.00;99.90
22984;DHT22;11658;48.908;9.140;2023-03-14T15:48:48;8.90;99.90
22984;DHT22;11658;48.908;9.140;2023-03-14T15:51:14;8.80;99.90
22984;DHT22;11658;48.908;9.140;2023-03-14T15:53:40;8.80;99.90
22984;DHT22;11658;48.908;9.140;2023-03-14T15:56:09;8.70;99.90
22984;DHT22;11658;48.908;9.140;2023-03-14T15:58:36;8.60;99.90
22984;DHT22;11658;48.908;9.140;2023-03-14T16:01:05;8.60;99.90
22984;DHT22;11658;48.908;9.140;2023-03-14T16:03:34;8.60;99.90
22984;DHT22;11658;48.908;9.140;2023-03-14T16:06:00;8.60;99.90
22984;DHT22;11658;48.908;9.140;2023-03-14T16:08:26;8.70;99.90
22984;DHT22;11658;48.908;9.140;2023-03-14T16:10:54;8.80;99.90
22984;DHT22;11658;48.908;9.140;2023-03-14T16:13:20;8.70;99.90
22984;DHT22;11658;48.908;9.140;2023-03-14T16:16:00;8.70;99.90
22984;DHT22;11658;48.908;9.140;2023-03-14T16:18:32;8.60;99.90
22984;DHT22;11658;48.908;9.140;2023-03-14T16:21:03;8.50;99.90
22984;DHT22;11658;48.908;9.140;2023-03-14T16:23:32;8.50;99.90
22984;DHT22;11658;48.908;9.140;2023-03-14T16:25:58;8.50;99.90
22984;DHT22;11658;48.908;9.140;2023-03-14T16:28:25;8.50;99.90
22984;DHT22;11658;48.908;9.140;2023-03-14T16:30:51;8.50;99.90
22984;DHT22;11658;48.908;9.140;2023-03-14T16:33:16;8.60;99.90
22984;DHT22;11658;48.908;9.140;2023-03-14T16:35:59;8.60;99.90
22984;DHT22;11658;48.908;9.140;2023-03-14T16:38:33;8.60;99.90
22984;DHT22;11658;48.908;9.140;2023-03-14T16:41:09;8.60;99.90
22984;DHT22;11658;48.908;9.140;2023-03-14T16:43:35;8.50;99.90
22984;DHT22;11658;48.908;9.140;2023-03-14T16:46:06;8.40;99.90
22984;DHT22;11658;48.908;9.140;2023-03-14T16:48:32;8.30;99.90
22984;DHT22;11658;48.908;9.140;2023-03-14T16:50:58;7.90;99.90
22984;DHT22;11658;48.908;9.140;2023-03-14T16:53:25;7.70;99.90
22984;DHT22;11658;48.908;9.140;2023-03-14T16:55:53;7.60;99.90
22984;DHT22;11658;48.908;9.140;2023-03-14T16:58:19;7.60;99.90
22984;DHT22;11658;48.908;9.140;2023-03-14T17:00:46;7.60;99.90
22984;DHT22;11658;48.908;9.140;2023-03-14T17:03:12;7.60;99.90
22984;DHT22;11658;48.908;9.140;2023-03-14T17:05:44;7.60;99.90
22984;DHT22;11658;48.908;9.140;2023-03-14T17:08:10;7.50;99.90
22984;DHT22;11658;48.908;9.140;2023-03-14T17:10:36;7.20;99.90
22984;DHT22;11658;48.908;9.140;2023-03-14T17:13:01;7.00;99.90
22984;DHT22;11658;48.908;9.140;2023-03-14T17:15:27;6.80;99.90
22984;DHT22;11658;48.908;9.140;2023-03-14T17:17:53;6.70;99.90
22984;DHT22;11658;48.908;9.140;2023-03-14T17:20:18;6.70;99.90
22984;DHT22;11658;48.908;9.140;2023-03-14T17:22:44;6.60;99.90
22984;DHT22;11658;48.908;9.140;2023-03-14T17:25:10;6.60;99.90
22984;DHT22;11658;48.908;9.140;2023-03-14T17:27:35;6.60;99.90
22984;DHT22;11658;48.908;9.140;2023-03-14T17:30:03;6.50;99.90
22984;DHT22;11658;48.908;9.140;2023-03-14T17:32:29;6.50;99.90
22984;DHT22;11658;48.908;9.140;2023-03-14T17:34:54;6.50;99.90
22984;DHT22;11658;48.908;9.140;2023-03-14T17:37:20;6.40;99.90
22984;DHT22;11658;48.908;9.140;2023-03-14T17:39:45;6.30;99.90
22984;DHT22;11658;48.908;9.140;2023-03-14T17:42:11;6.30;99.90
22984;DHT22;11658;48.908;9.140;2023-03-14T17:44:37;6.30;99.90
22984;DHT22;11658;48.908;9.140;2023-03-14T17:47:03;6.30;99.90
22984;DHT22;11658;48.908;9.140;2023-03-14T17:49:29;6.30;99.90
22984;DHT22;11658;48.908;9.140;2023-03-14T17:51:54;6.30;99.90
22984;DHT22;11658;48.908;9.140;2023-03-14T17:54:20;6.30;99.90
22984;DHT22;11658;48.908;9.140;2023-03-14T17:56:46;6.30;99.90
22984;DHT22;11658;48.908;9.140;2023-03-14T17:59:13;6.30;99.90
22984;DHT22;11658;48.908;9.140;2023-03-14T18:01:39;6.30;99.90
22984;DHT22;11658;48.908;9.140;2023-03-14T18:04:06;6.30;99.90
22984;DHT22;11658;48.908;9.140;2023-03-14T18:06:31;6.30;99.90
22984;DHT22;11658;48.908;9.140;2023-03-14T18:08:58;6.30;99.90
22984;DHT22;11658;48.908;9.140;2023-03-14T18:11:25;6.20;99.90
22984;DHT22;11658;48.908;9.140;2023-03-14T18:13:50;6.20;99.90
22984;DHT22;11658;48.908;9.140;2023-03-14T18:16:19;6.20;99.90
22984;DHT22;11658;48.908;9.140;2023-03-14T18:18:46;6.10;99.90
22984;DHT22;11658;48.908;9.140;2023-03-14T18:21:14;6.10;99.90
22984;DHT22;11658;48.908;9.140;2023-03-14T18:23:40;6.00;99.90
22984;DHT22;11658;48.908;9.140;2023-03-14T18:26:06;6.00;99.90
22984;DHT22;11658;48.908;9.140;2023-03-14T18:28:31;6.00;99.90
22984;DHT22;11658;48.908;9.140;2023-03-14T18:31:15;5.90;99.90
22984;DHT22;11658;48.908;9.140;2023-03-14T18:33:47;5.90;99.90
22984;DHT22;11658;48.908;9.140;2023-03-14T18:36:12;5.90;99.90
22984;DHT22;11658;48.908;9.140;2023-03-14T18:38:38;5.90;99.90
22984;DHT22;11658;48.908;9.140;2023-03-14T18:41:12;5.90;99.90
22984;DHT22;11658;48.908;9.140;2023-03-14T18:43:38;5.80;99.90
22984;DHT22;11658;48.908;9.140;2023-03-14T18:46:04;5.80;99.90
22984;DHT22;11658;48.908;9.140;2023-03-14T18:48:30;5.80;99.90
22984;DHT22;11658;48.908;9.140;2023-03-14T18:51:00;5.90;99.90
22984;DHT22;11658;48.908;9.140;2023-03-14T18:53:25;5.90;99.90
22984;DHT22;11658;48.908;9.140;2023-03-14T18:55:57;5.80;99.90
22984;DHT22;11658;48.908;9.140;2023-03-14T18:58:23;5.90;99.90
22984;DHT22;11658;48.908;9.140;2023-03-14T19:00:58;5.90;99.90
22984;DHT22;11658;48.908;9.140;2023-03-14T19:03:25;5.90;99.90
22984;DHT22;11658;48.908;9.140;2023-03-14T19:05:51;5.90;99.90
22984;DHT22;11658;48.908;9.140;2023-03-14T19:08:17;5.90;99.90
22984;DHT22;11658;48.908;9.140;2023-03-14T19:10:42;5.90;99.90
22984;DHT22;11658;48.908;9.140;2023-03-14T19:13:08;6.00;99.90
22984;DHT22;11658;48.908;9.140;2023-03-14T19:15:34;6.00;99.90
22984;DHT22;11658;48.908;9.140;2023-03-14T19:17:59;6.00;99.90
22984;DHT22;11658;48.908;9.140;2023-03-14T19:20:25;6.00;99.90
22984;DHT22;11658;48.908;9.140;2023-03-14T19:22:51;6.00;99.90
22984;DHT22;11658;48.908;9.140;2023-03-14T19:25:16;6.00;99.90
22984;DHT22;11658;48.908;9.140;2023-03-14T19:27:42;6.10;99.90
22984;DHT22;11658;48.908;9.140;2023-03-14T19:30:08;6.10;99.90
22984;DHT22;11658;48.908;9.140;2023-03-14T19:32:34;6.00;99.90
22984;DHT22;11658;48.908;9.140;2023-03-14T19:34:59;6.10;99.90
22984;DHT22;11658;48.908;9.140;2023-03-14T19:37:25;6.10;99.90
22984;DHT22;11658;48.908;9.140;2023-03-14T19:39:51;6.10;99.90
22984;DHT22;11658;48.908;9.140;2023-03-14T19:42:16;6.10;99.90
22984;DHT22;11658;48.908;9.140;2023-03-14T19:44:42;6.10;99.90
22984;DHT22;11658;48.908;9.140;2023-03-14T19:47:08;6.10;99.90
22984;DHT22;11658;48.908;9.140;2023-03-14T19:49:33;6.10;99.90
22984;DHT22;11658;48.908;9.140;2023-03-14T19:51:59;6.10;99.90
22984;DHT22;11658;48.908;9.140;2023-03-14T19:54:28;6.10;99.90
22984;DHT22;11658;48.908;9.140;2023-03-14T19:56:55;6.20;99.90
22984;DHT22;11658;48.908;9.140;2023-03-14T19:59:21;6.20;99.90
22984;DHT22;11658;48.908;9.140;2023-03-14T20:01:47;6.20;99.90
22984;DHT22;11658;48.908;9.140;2023-03-14T20:04:13;6.30;99.90
22984;DHT22;11658;48.908;9.140;2023-03-14T20:06:40;6.30;99.90
22984;DHT22;11658;48.908;9.140;2023-03-14T20:09:08;6.30;99.90
22984;DHT22;11658;48.908;9.140;2023-03-14T20:11:35;6.20;99.90
22984;DHT22;11658;48.908;9.140;2023-03-14T20:14:06;6.10;99.90
22984;DHT22;11658;48.908;9.140;2023-03-14T20:16:32;6.10;99.90
22984;DHT22;11658;48.908;9.140;2023-03-14T20:19:02;6.20;99.90
22984;DHT22;11658;48.908;9.140;2023-03-14T20:21:28;6.10;99.90
22984;DHT22;11658;48.908;9.140;2023-03-14T20:23:54;5.90;99.90
22984;DHT22;11658;48.908;9.140;2023-03-14T20:26:19;5.80;99.90
22984;DHT22;11658;48.908;9.140;2023-03-14T20:28:45;5.70;99.90
22984;DHT22;11658;48.908;9.140;2023-03-14T20:31:11;5.70;99.90
22984;DHT22;11658;48.908;9.140;2023-03-14T20:33:39;5.70;99.90
22984;DHT22;11658;48.908;9.140;2023-03-14T20:36:07;5.80;99.90
22984;DHT22;11658;48.908;9.140;2023-03-14T20:38:33;5.80;99.90
22984;DHT22;11658;48.908;9.140;2023-03-14T20:41:00;5.80;99.90
22984;DHT22;11658;48.908;9.140;2023-03-14T20:43:27;5.80;99.90
22984;DHT22;11658;48.908;9.140;2023-03-14T20:45:55;5.80;99.90
22984;DHT22;11658;48.908;9.140;2023-03-14T20:48:21;5.80;99.90
22984;DHT22;11658;48.908;9.140;2023-03-14T20:50:48;5.90;99.90
22984;DHT22;11658;48.908;9.140;2023-03-14T20:53:14;5.90;99.90
22984;DHT22;11658;48.908;9.140;2023-03-14T20:55:40;5.90;99.90